Time;durP1;ratioP1;P1;durP2;ratioP2;P2;SDS_P1;SDS_P2;PMS_P1;PMS_P2;Temp;Humidity;BMP_temperature;BMP_pressure;BME280_temperature;BME280_humidity;BME280_pressure;Samples;Min_cycle;Max_cycle;Signal;HPM_P1;HPM_P2
2023/07/20 00:02:00;;;;;;;9.88;2.60;;;;;;;17.86;83.34;100403.59;5092726;28;20028;-72
2023/07/20 00:04:25;;;;;;;11.90;2.20;;;;;;;17.78;83.78;100400.25;5091947;28;20032;-71
2023/07/20 00:06:50;;;;;;;12.02;2.25;;;;;;;17.94;83.29;100408.56;5092780;28;20039;-71
2023/07/20 00:09:16;;;;;;;9.98;2.30;;;;;;;17.68;84.92;100397.41;5091195;28;20024;-71
2023/07/20 00:11:52;;;;;;;10.10;1.95;;;;;;;17.81;85.09;100401.63;5073605;28;20047;-71
2023/07/20 00:14:18;;;;;;;8.95;2.28;;;;;;;17.83;84.27;100386.69;5076394;28;20055;-71
2023/07/20 00:16:46;;;;;;;13.88;2.13;;;;;;;17.94;84.75;100401.22;5069698;28;20036;-71
2023/07/20 00:19:12;;;;;;;10.13;2.42;;;;;;;17.91;84.64;100404.44;5067956;28;20115;-71
2023/07/20 00:21:40;;;;;;;12.73;2.40;;;;;;;17.81;84.42;100391.59;5069855;28;20024;-71
2023/07/20 00:24:06;;;;;;;9.25;2.42;;;;;;;17.76;84.81;100377.06;5053597;28;20031;-72
2023/07/20 00:26:31;;;;;;;12.05;2.00;;;;;;;17.93;84.43;100388.69;5078104;28;20020;-72
2023/07/20 00:28:57;;;;;;;12.57;2.20;;;;;;;17.89;84.76;100392.19;5088256;28;20400;-72
2023/07/20 00:31:22;;;;;;;14.52;2.10;;;;;;;17.86;84.40;100390.81;5082317;28;20036;-71
2023/07/20 00:33:48;;;;;;;9.95;1.67;;;;;;;17.87;83.94;100383.47;5071208;28;20036;-72
2023/07/20 00:36:14;;;;;;;8.40;1.90;;;;;;;17.91;83.00;100385.38;5105664;28;20036;-72
2023/07/20 00:38:40;;;;;;;10.60;1.90;;;;;;;17.69;82.84;100355.50;5128184;28;20031;-72
2023/07/20 00:41:06;;;;;;;11.88;2.08;;;;;;;17.90;82.65;100380.22;5127738;28;20012;-72
2023/07/20 00:43:31;;;;;;;10.25;2.20;;;;;;;17.66;84.86;100376.97;5127875;28;20027;-72
2023/07/20 00:45:56;;;;;;;9.23;1.98;;;;;;;17.77;84.54;100381.44;5111713;28;20032;-72
2023/07/20 00:48:23;;;;;;;8.88;1.65;;;;;;;17.81;84.32;100385.28;5104646;28;20146;-72
2023/07/20 00:50:48;;;;;;;10.25;1.80;;;;;;;17.77;83.94;100365.13;5075480;28;20032;-72
2023/07/20 00:53:14;;;;;;;7.68;1.73;;;;;;;17.72;83.47;100365.88;5098146;28;20020;-71
2023/07/20 00:55:39;;;;;;;10.27;1.88;;;;;;;17.82;82.50;100376.88;5091907;28;20359;-71
2023/07/20 00:58:05;;;;;;;10.45;1.80;;;;;;;17.84;82.48;100371.19;5091355;28;20386;-72
2023/07/20 01:00:30;;;;;;;7.57;1.90;;;;;;;17.81;82.77;100377.13;5082458;28;20025;-71
2023/07/20 01:02:56;;;;;;;9.43;1.90;;;;;;;17.90;82.80;100366.59;5075371;28;20224;-71
2023/07/20 01:05:32;;;;;;;11.00;1.95;;;;;;;17.74;83.35;100341.13;5074821;28;20338;-71
2023/07/20 01:08:28;;;;;;;13.05;2.45;;;;;;;17.88;83.32;100366.03;5091922;28;20446;-71
2023/07/20 01:10:59;;;;;;;7.68;1.70;;;;;;;17.78;84.05;100366.75;5096116;28;20016;-72
2023/07/20 01:13:26;;;;;;;12.07;2.08;;;;;;;17.80;83.65;100365.44;5094346;28;20094;-71
2023/07/20 01:16:01;;;;;;;13.90;2.30;;;;;;;17.75;84.06;100354.47;5091051;28;20032;-71
2023/07/20 01:18:27;;;;;;;9.30;1.90;;;;;;;17.89;83.53;100365.78;5092332;28;20456;-72
2023/07/20 01:21:00;;;;;;;11.85;2.20;;;;;;;17.77;83.87;100359.69;5110230;28;20082;-71
2023/07/20 01:24:07;;;;;;;9.05;1.95;;;;;;;17.73;84.19;100372.94;5091550;28;20033;-71
2023/07/20 01:27:06;;;;;;;9.50;2.30;;;;;;;17.78;83.84;100369.47;5091643;28;20055;-71
2023/07/20 01:30:01;;;;;;;13.65;2.30;;;;;;;17.77;84.11;100359.69;5091897;28;20067;-71
2023/07/20 01:32:29;;;;;;;9.95;1.45;;;;;;;17.76;84.38;100364.31;5090124;28;20406;-72
2023/07/20 01:34:55;;;;;;;7.97;2.20;;;;;;;17.69;85.21;100371.00;5089908;28;20051;-70
2023/07/20 01:37:25;;;;;;;8.50;1.85;;;;;;;17.70;84.30;100357.13;5106243;28;20044;-71
2023/07/20 01:39:54;;;;;;;6.72;1.23;;;;;;;17.62;84.84;100373.94;5081934;28;20095;-71
2023/07/20 01:42:22;;;;;;;11.35;1.92;;;;;;;17.78;83.79;100367.59;5090717;28;20483;-71
2023/07/20 01:44:47;;;;;;;5.03;1.35;;;;;;;17.77;83.53;100365.94;5075327;28;20029;-72
2023/07/20 01:47:12;;;;;;;10.75;1.83;;;;;;;17.62;83.57;100344.00;5070444;28;20060;-71
2023/07/20 01:49:38;;;;;;;6.03;1.48;;;;;;;17.70;83.63;100365.31;5068950;28;20348;-71
2023/07/20 01:52:04;;;;;;;10.18;1.85;;;;;;;17.66;84.55;100366.09;5090573;28;20482;-72
2023/07/20 01:54:29;;;;;;;11.38;2.30;;;;;;;17.67;84.54;100357.66;5099895;28;20092;-72
2023/07/20 01:56:55;;;;;;;7.50;1.45;;;;;;;17.71;83.82;100342.44;5095311;28;20465;-72
2023/07/20 01:59:20;;;;;;;10.07;1.65;;;;;;;17.84;83.22;100361.09;5108820;28;20034;-72
2023/07/20 02:01:46;;;;;;;7.70;1.73;;;;;;;17.69;83.90;100358.22;5079358;28;20044;-71
2023/07/20 02:04:11;;;;;;;7.82;1.77;;;;;;;17.68;83.52;100353.03;5071930;28;20024;-72
2023/07/20 02:06:37;;;;;;;6.97;1.27;;;;;;;17.50;84.21;100341.44;5053774;28;20273;-71
2023/07/20 02:09:02;;;;;;;9.80;1.42;;;;;;;17.40;84.30;100330.44;5068090;28;20017;-72
2023/07/20 02:11:28;;;;;;;7.85;1.50;;;;;;;17.56;84.51;100345.84;5073529;28;20142;-72
2023/07/20 02:13:53;;;;;;;5.65;1.15;;;;;;;17.51;83.98;100345.78;5046447;28;20027;-72
2023/07/20 02:16:19;;;;;;;7.60;1.40;;;;;;;17.49;84.17;100338.97;5080449;28;20037;-72
2023/07/20 02:18:44;;;;;;;8.00;1.55;;;;;;;17.61;83.97;100353.22;5076825;28;20060;-71
2023/07/20 02:21:10;;;;;;;9.23;1.60;;;;;;;17.60;84.46;100346.16;5083156;28;20499;-72
2023/07/20 02:23:35;;;;;;;7.88;1.55;;;;;;;17.61;84.55;100353.22;5083956;28;20068;-71
2023/07/20 02:26:01;;;;;;;12.68;1.63;;;;;;;17.62;84.32;100344.00;5072328;28;20522;-71
2023/07/20 02:28:27;;;;;;;9.77;1.77;;;;;;;17.52;84.30;100324.88;5072317;28;20135;-71
2023/07/20 02:30:55;;;;;;;8.50;1.65;;;;;;;17.64;84.25;100344.56;5072160;28;20101;-71
2023/07/20 02:33:21;;;;;;;11.27;1.88;;;;;;;17.45;84.02;100316.06;5072343;28;20029;-71
2023/07/20 02:35:47;;;;;;;8.10;1.40;;;;;;;17.56;84.06;100336.88;5056403;28;20024;-71
2023/07/20 02:38:12;;;;;;;9.55;1.20;;;;;;;17.59;84.44;100347.25;5072733;28;20039;-71
2023/07/20 02:40:38;;;;;;;9.88;1.83;;;;;;;17.55;85.23;100355.09;5072433;28;20032;-71
2023/07/20 02:43:03;;;;;;;10.38;1.75;;;;;;;17.56;84.99;100337.69;5072388;28;20036;-71
2023/07/20 02:45:29;;;;;;;9.32;1.80;;;;;;;17.69;84.74;100349.25;5055517;28;20408;-71
2023/07/20 02:47:54;;;;;;;8.98;2.45;;;;;;;17.65;85.44;100348.94;5073719;28;20051;-72
2023/07/20 02:50:20;;;;;;;9.65;2.00;;;;;;;17.67;85.52;100345.94;5077953;28;20112;-72
2023/07/20 02:52:45;;;;;;;7.38;1.50;;;;;;;17.67;84.89;100338.59;5077496;28;20091;-71
2023/07/20 02:55:11;;;;;;;10.52;1.70;;;;;;;17.60;84.67;100335.28;5095078;28;20032;-72
2023/07/20 02:57:37;;;;;;;11.60;1.65;;;;;;;17.51;84.18;100318.59;5114149;28;20031;-72
2023/07/20 03:00:07;;;;;;;8.07;1.40;;;;;;;17.67;83.78;100333.16;5092452;28;20097;-71
2023/07/20 03:02:32;;;;;;;9.90;1.92;;;;;;;17.70;82.72;100331.84;5073314;28;20099;-71
2023/07/20 03:05:00;;;;;;;5.60;1.58;;;;;;;17.64;81.56;100341.84;5072885;28;20112;-71
2023/07/20 03:07:28;;;;;;;5.40;1.25;;;;;;;17.59;80.11;100328.19;5073418;28;20036;-71
2023/07/20 03:09:54;;;;;;;9.48;1.55;;;;;;;17.51;79.16;100320.47;5071893;28;20055;-71
2023/07/20 03:12:20;;;;;;;4.07;0.95;;;;;;;17.63;78.16;100329.31;5071328;28;20028;-72
2023/07/20 03:14:46;;;;;;;7.28;1.20;;;;;;;17.54;77.40;100306.38;5088369;28;20457;-71
2023/07/20 03:17:11;;;;;;;4.32;0.95;;;;;;;17.68;77.73;100332.09;5081110;28;20024;-72
2023/07/20 03:19:37;;;;;;;7.25;1.20;;;;;;;17.50;77.39;100305.25;5093999;28;20059;-71
2023/07/20 03:22:02;;;;;;;4.50;1.00;;;;;;;17.55;76.00;100338.78;5074999;28;20085;-71
2023/07/20 03:24:27;;;;;;;2.72;0.80;;;;;;;17.55;74.77;100332.53;5108916;28;20096;-71
2023/07/20 03:26:53;;;;;;;4.60;1.00;;;;;;;17.59;73.53;100336.34;5108452;28;20043;-71
2023/07/20 03:29:18;;;;;;;5.70;1.10;;;;;;;17.59;73.13;100339.09;5091368;28;20119;-71
2023/07/20 03:31:44;;;;;;;5.82;1.23;;;;;;;17.45;73.69;100319.63;5092405;28;20451;-72
2023/07/20 03:34:09;;;;;;;7.93;1.13;;;;;;;17.52;73.88;100338.47;5092568;28;20024;-71
2023/07/20 03:36:35;;;;;;;6.85;1.05;;;;;;;17.63;74.28;100332.03;5091190;28;20067;-72
2023/07/20 03:39:00;;;;;;;7.15;1.10;;;;;;;17.62;73.80;100324.97;5108066;28;20027;-71
2023/07/20 03:41:26;;;;;;;7.53;1.35;;;;;;;17.70;73.71;100335.38;5092094;28;20487;-71
2023/07/20 03:43:51;;;;;;;6.18;1.10;;;;;;;17.66;74.08;100347.03;5092403;28;20028;-71
2023/07/20 03:46:17;;;;;;;7.28;1.48;;;;;;;17.44;74.72;100314.44;5091146;28;20020;-71
2023/07/20 03:48:42;;;;;;;5.22;1.90;;;;;;;17.67;74.80;100344.03;5095080;28;20074;-71
2023/07/20 03:51:07;;;;;;;6.85;0.90;;;;;;;17.68;75.25;100334.81;5109292;28;20032;-71
2023/07/20 03:53:33;;;;;;;8.07;1.40;;;;;;;17.72;74.68;100332.41;5091881;28;20395;-71
2023/07/20 03:55:58;;;;;;;6.65;1.20;;;;;;;17.77;74.30;100337.91;5087047;28;20036;-72
2023/07/20 03:58:24;;;;;;;6.28;1.40;;;;;;;18.18;71.62;100339.09;5091980;28;20398;-72
2023/07/20 04:00:51;;;;;;;5.47;1.33;;;;;;;18.02;70.98;100335.41;5126466;28;20104;-72
2023/07/20 04:03:20;;;;;;;3.92;1.00;;;;;;;17.60;70.90;100306.16;5110493;28;20035;-71
2023/07/20 04:05:46;;;;;;;6.15;1.13;;;;;;;17.82;70.88;100336.06;5108189;28;20028;-71
2023/07/20 04:08:12;;;;;;;8.10;1.45;;;;;;;17.83;70.27;100334.16;5097304;28;20533;-72
2023/07/20 04:10:38;;;;;;;6.20;1.15;;;;;;;17.76;70.22;100312.59;5111203;28;20060;-72
2023/07/20 04:13:04;;;;;;;5.70;1.05;;;;;;;17.99;70.61;100327.78;5092156;28;20024;-72
2023/07/20 04:15:30;;;;;;;7.97;1.23;;;;;;;18.14;70.27;100324.31;5092867;28;20028;-72
2023/07/20 04:17:56;;;;;;;5.03;0.80;;;;;;;17.84;71.03;100314.84;5092700;28;20102;-72
2023/07/20 04:20:22;;;;;;;8.40;0.90;;;;;;;17.73;70.83;100323.16;5092892;28;20513;-71
2023/07/20 04:22:48;;;;;;;4.43;1.08;;;;;;;19.00;66.24;100326.75;5090826;28;20038;-71
2023/07/20 04:25:14;;;;;;;5.53;1.02;;;;;;;20.45;60.83;100317.66;5093853;28;20032;-71
2023/07/20 04:27:39;;;;;;;4.60;0.93;;;;;;;20.85;58.74;100327.69;5094757;28;20433;-71
2023/07/20 04:30:07;;;;;;;5.20;1.00;;;;;;;20.34;59.66;100317.69;5093111;28;20032;-72
2023/07/20 04:32:33;;;;;;;4.72;0.90;;;;;;;21.16;57.39;100322.91;5090168;28;20032;-72
2023/07/20 04:34:59;;;;;;;3.72;1.05;;;;;;;20.69;58.53;100302.31;5089132;28;20389;-72
2023/07/20 04:37:24;;;;;;;6.50;0.90;;;;;;;19.64;63.14;100311.16;5072040;28;20043;-71
2023/07/20 04:39:50;;;;;;;6.28;0.90;;;;;;;19.13;66.11;100316.44;5090502;28;20035;-72
2023/07/20 04:42:16;;;;;;;4.07;0.90;;;;;;;18.73;67.47;100315.19;5098690;27;20040;-71
2023/07/20 04:44:41;;;;;;;5.30;1.10;;;;;;;18.62;67.32;100317.03;5091536;28;20530;-72
2023/07/20 04:47:08;;;;;;;3.40;0.88;;;;;;;18.61;67.51;100318.13;5091454;28;20101;-71
2023/07/20 04:49:34;;;;;;;5.72;1.10;;;;;;;18.58;68.22;100315.91;5090197;28;20445;-72
2023/07/20 04:52:02;;;;;;;6.43;1.13;;;;;;;18.34;69.83;100322.84;5093392;28;20055;-71
2023/07/20 04:54:27;;;;;;;4.30;0.90;;;;;;;18.45;69.76;100310.94;5099406;28;20108;-72
2023/07/20 04:56:53;;;;;;;4.38;1.00;;;;;;;18.42;69.84;100325.91;5090881;28;20028;-72
2023/07/20 04:59:19;;;;;;;7.63;1.15;;;;;;;18.41;69.73;100320.69;5091060;28;20089;-71
2023/07/20 05:01:45;;;;;;;7.13;1.20;;;;;;;18.20;70.10;100312.41;5077741;28;20410;-72
2023/07/20 05:04:10;;;;;;;6.88;0.93;;;;;;;18.16;70.37;100303.13;5070094;28;20056;-72
2023/07/20 05:06:35;;;;;;;4.25;0.88;;;;;;;18.30;69.93;100328.00;5070396;28;20028;-72
2023/07/20 05:09:01;;;;;;;3.58;0.75;;;;;;;18.22;70.34;100321.13;5086849;28;20037;-72
2023/07/20 05:11:26;;;;;;;5.72;1.10;;;;;;;18.50;69.31;100321.84;5087195;28;20085;-71
2023/07/20 05:13:51;;;;;;;5.75;1.08;;;;;;;18.66;68.84;100325.50;5086916;28;20029;-72
2023/07/20 05:16:17;;;;;;;6.82;1.10;;;;;;;18.36;69.08;100317.97;5071844;28;20583;-72
2023/07/20 05:18:42;;;;;;;4.68;1.00;;;;;;;18.82;67.45;100323.69;5065606;28;20111;-72
2023/07/20 05:21:08;;;;;;;5.43;1.10;;;;;;;18.80;67.37;100326.69;5092276;28;20038;-72
2023/07/20 05:23:33;;;;;;;5.95;1.20;;;;;;;18.62;68.26;100322.47;5091123;28;20024;-72
2023/07/20 05:25:59;;;;;;;9.02;1.35;;;;;;;18.57;68.41;100327.88;5089987;28;20378;-72
2023/07/20 05:28:26;;;;;;;6.10;1.10;;;;;;;18.51;68.64;100326.25;5091036;28;20093;-71
2023/07/20 05:30:52;;;;;;;4.13;0.80;;;;;;;18.58;68.11;100302.28;5095983;28;20111;-72
2023/07/20 05:33:21;;;;;;;4.75;0.93;;;;;;;18.60;69.04;100321.91;5091183;28;20032;-72
2023/07/20 05:35:47;;;;;;;8.63;1.48;;;;;;;19.09;66.64;100318.91;5093552;28;20069;-72
2023/07/20 05:38:13;;;;;;;5.65;1.00;;;;;;;18.91;68.27;100309.28;5095033;28;20028;-72
2023/07/20 05:40:40;;;;;;;3.15;0.90;;;;;;;18.64;69.72;100312.13;5093345;28;20024;-71
2023/07/20 05:43:06;;;;;;;5.05;0.95;;;;;;;18.22;71.01;100309.44;5094616;28;20097;-72
2023/07/20 05:45:31;;;;;;;5.75;1.00;;;;;;;18.20;71.39;100311.59;5076438;28;20020;-72
2023/07/20 05:47:57;;;;;;;7.40;1.10;;;;;;;18.17;71.88;100306.66;5094882;28;20077;-71
2023/07/20 05:50:22;;;;;;;8.30;1.08;;;;;;;18.22;71.67;100314.88;5103072;28;20044;-72
2023/07/20 05:52:48;;;;;;;5.65;0.95;;;;;;;18.08;72.07;100318.03;5092729;28;20060;-72
2023/07/20 05:55:13;;;;;;;7.47;1.20;;;;;;;18.25;72.72;100320.63;5075293;28;20363;-72
2023/07/20 05:57:41;;;;;;;7.70;1.58;;;;;;;18.67;72.12;100322.50;5091941;28;20028;-72
2023/07/20 06:00:10;;;;;;;8.65;1.67;;;;;;;18.61;72.01;100322.72;5093663;28;20028;-72
2023/07/20 06:02:35;;;;;;;9.55;0.82;;;;;;;18.60;70.59;100316.47;5111620;28;20475;-73
2023/07/20 06:05:01;;;;;;;8.07;0.90;;;;;;;18.36;70.46;100293.44;5077989;28;20032;-72
2023/07/20 06:07:26;;;;;;;3.85;0.80;;;;;;;18.58;71.83;100321.38;5095500;28;20032;-72
2023/07/20 06:09:52;;;;;;;7.28;1.10;;;;;;;18.71;71.83;100318.16;5087378;28;20340;-72
2023/07/20 06:12:18;;;;;;;3.78;0.80;;;;;;;18.63;70.97;100310.47;5083611;28;20174;-72
2023/07/20 06:14:43;;;;;;;8.43;0.98;;;;;;;18.65;71.38;100318.41;5074885;28;20036;-73
2023/07/20 06:17:09;;;;;;;5.75;1.02;;;;;;;18.38;71.90;100307.63;5079143;28;20032;-72
2023/07/20 06:19:35;;;;;;;6.22;1.00;;;;;;;18.13;72.59;100295.47;5096436;28;20111;-72
2023/07/20 06:22:00;;;;;;;6.75;1.00;;;;;;;18.19;72.86;100305.31;5110997;28;20039;-72
2023/07/20 06:24:26;;;;;;;3.88;0.73;;;;;;;18.29;72.66;100307.28;5091234;28;20056;-73
2023/07/20 06:26:51;;;;;;;7.35;1.00;;;;;;;18.17;73.92;100321.09;5076258;28;20117;-72
2023/07/20 06:29:16;;;;;;;4.35;0.70;;;;;;;18.06;75.95;100317.47;5082642;28;20032;-72
2023/07/20 06:31:42;;;;;;;3.60;0.77;;;;;;;18.09;77.21;100316.13;5062144;28;20494;-72
2023/07/20 06:34:07;;;;;;;8.00;0.95;;;;;;;18.12;76.82;100315.63;5092952;28;20480;-72
2023/07/20 06:36:33;;;;;;;5.32;1.08;;;;;;;18.42;75.70;100320.44;5099275;28;20031;-72
2023/07/20 06:38:58;;;;;;;10.63;1.10;;;;;;;18.38;75.74;100313.91;5076942;28;20122;-72
2023/07/20 06:41:23;;;;;;;5.90;0.88;;;;;;;18.28;75.74;100309.19;5094003;28;20112;-72
2023/07/20 06:43:49;;;;;;;6.13;1.05;;;;;;;18.26;75.25;100319.53;5056417;28;20553;-72
2023/07/20 06:46:15;;;;;;;4.63;1.00;;;;;;;18.35;74.46;100299.97;5083979;28;20536;-72
2023/07/20 06:48:40;;;;;;;4.50;0.60;;;;;;;18.53;72.75;100307.69;5099745;28;20091;-73
2023/07/20 06:51:06;;;;;;;4.70;0.80;;;;;;;18.52;72.40;100306.06;5064207;28;20483;-72
2023/07/20 06:53:31;;;;;;;4.15;1.00;;;;;;;18.89;71.74;100310.63;5092280;28;20051;-73
2023/07/20 06:55:57;;;;;;;3.67;0.90;;;;;;;19.23;71.37;100317.28;5102568;28;20028;-73
2023/07/20 06:58:23;;;;;;;3.92;0.88;;;;;;;19.05;72.39;100312.34;5098500;28;20394;-72
2023/07/20 07:00:48;;;;;;;4.43;0.90;;;;;;;19.12;71.79;100312.09;5075434;28;20494;-72
2023/07/20 07:03:14;;;;;;;4.70;0.85;;;;;;;19.36;70.60;100301.50;5094211;28;20035;-73
2023/07/20 07:05:39;;;;;;;4.35;1.00;;;;;;;19.02;71.13;100308.22;5075099;28;20088;-73
2023/07/20 07:08:05;;;;;;;5.47;1.08;;;;;;;19.09;71.17;100288.91;5074449;28;20039;-72
2023/07/20 07:10:31;;;;;;;3.53;0.65;;;;;;;18.97;71.80;100304.66;5093042;28;20729;-72
2023/07/20 07:12:56;;;;;;;4.50;1.00;;;;;;;18.93;71.24;100306.28;5091683;28;20050;-72
2023/07/20 07:15:23;;;;;;;3.13;0.80;;;;;;;19.10;71.25;100306.88;5074724;28;20396;-72
2023/07/20 07:17:49;;;;;;;9.30;1.20;;;;;;;19.24;71.42;100308.03;5091663;28;20032;-72
2023/07/20 07:20:15;;;;;;;6.15;0.80;;;;;;;19.29;70.91;100303.69;5092072;28;20020;-72
2023/07/20 07:22:43;;;;;;;4.38;0.70;;;;;;;19.59;70.05;100305.66;5074802;28;20478;-72
2023/07/20 07:25:09;;;;;;;5.25;0.70;;;;;;;19.51;70.05;100290.63;5074261;28;20300;-72
2023/07/20 07:27:35;;;;;;;3.65;0.70;;;;;;;19.46;70.54;100310.53;5091459;28;20085;-72
2023/07/20 07:30:00;;;;;;;3.35;0.75;;;;;;;19.46;69.97;100306.97;5091192;28;20031;-73
2023/07/20 07:32:26;;;;;;;4.22;0.90;;;;;;;19.63;69.48;100302.13;5057692;28;20093;-72
2023/07/20 07:34:51;;;;;;;2.60;0.65;;;;;;;19.48;70.10;100305.63;5090870;28;20132;-72
2023/07/20 07:37:19;;;;;;;4.28;0.90;;;;;;;19.49;70.77;100314.63;5074322;28;20039;-72
2023/07/20 07:39:44;;;;;;;3.28;1.08;;;;;;;19.60;71.77;100313.56;5075839;28;20054;-72
2023/07/20 07:42:11;;;;;;;3.85;0.90;;;;;;;19.47;70.74;100290.34;5074955;28;20032;-72
2023/07/20 07:44:36;;;;;;;6.38;1.13;;;;;;;19.10;72.47;100297.91;5068564;28;20028;-73
2023/07/20 07:47:02;;;;;;;4.93;0.65;;;;;;;19.24;71.56;100283.50;5089729;28;20390;-73
2023/07/20 07:49:27;;;;;;;4.80;0.82;;;;;;;19.84;70.73;100319.34;5082254;28;20096;-72
2023/07/20 07:51:53;;;;;;;4.60;0.70;;;;;;;19.94;69.84;100313.06;5097425;28;20197;-73
2023/07/20 07:54:18;;;;;;;4.22;0.82;;;;;;;19.76;70.10;100310.88;5075973;28;20490;-73
2023/07/20 07:56:44;;;;;;;3.65;0.60;;;;;;;19.49;71.58;100310.00;5091527;28;20038;-73
2023/07/20 07:59:09;;;;;;;5.85;0.80;;;;;;;19.87;70.26;100313.34;5073334;28;20029;-73
2023/07/20 08:01:35;;;;;;;2.65;0.60;;;;;;;20.05;68.89;100314.69;5088025;28;20027;-73
2023/07/20 08:04:00;;;;;;;3.58;0.73;;;;;;;19.62;70.22;100324.22;5074254;28;20028;-73
2023/07/20 08:06:26;;;;;;;3.08;0.88;;;;;;;19.32;72.24;100300.41;5078957;28;20025;-73
2023/07/20 08:08:51;;;;;;;4.47;0.65;;;;;;;19.30;73.54;100318.94;5109529;28;20042;-74
2023/07/20 08:11:25;;;;;;;2.80;0.50;;;;;;;19.44;72.31;100309.19;5094898;28;20108;-73
2023/07/20 08:13:52;;;;;;;5.43;1.00;;;;;;;19.36;72.62;100321.41;5103095;28;20107;-73
2023/07/20 08:16:17;;;;;;;3.35;0.60;;;;;;;19.54;71.98;100330.22;5101880;28;20119;-72
2023/07/20 08:18:45;;;;;;;5.68;0.82;;;;;;;19.78;71.96;100311.44;5081113;28;20595;-73
2023/07/20 08:21:10;;;;;;;2.30;0.50;;;;;;;19.79;72.23;100326.72;5059282;28;20040;-72
2023/07/20 08:23:36;;;;;;;4.85;0.85;;;;;;;19.95;70.37;100310.06;5080264;28;20039;-72
2023/07/20 08:26:01;;;;;;;5.72;0.70;;;;;;;19.87;70.38;100323.47;5086431;28;20442;-73
2023/07/20 08:28:29;;;;;;;3.80;0.63;;;;;;;19.94;69.93;100304.88;5071264;28;20066;-73
2023/07/20 08:30:54;;;;;;;2.75;0.40;;;;;;;20.04;68.95;100324.00;5097005;28;20157;-73
2023/07/20 08:33:20;;;;;;;3.47;0.70;;;;;;;20.09;69.01;100329.44;5094582;28;20114;-73
2023/07/20 08:35:46;;;;;;;4.55;0.63;;;;;;;19.95;69.20;100331.09;5091705;28;20036;-72
2023/07/20 08:38:11;;;;;;;2.08;0.60;;;;;;;19.75;70.04;100317.44;5100508;28;20060;-72
2023/07/20 08:40:41;;;;;;;3.33;0.52;;;;;;;19.92;69.32;100328.91;5089205;28;20036;-72
2023/07/20 08:43:08;;;;;;;6.82;0.70;;;;;;;20.05;68.42;100333.81;5094013;28;20075;-72
2023/07/20 08:45:34;;;;;;;6.35;1.00;;;;;;;20.00;68.31;100309.25;5093840;28;20028;-72
2023/07/20 08:48:02;;;;;;;3.60;0.70;;;;;;;20.57;66.96;100327.22;5110689;28;20057;-71
2023/07/20 08:50:31;;;;;;;5.57;0.60;;;;;;;20.78;66.17;100327.97;5113527;28;20023;-72
2023/07/20 08:52:58;;;;;;;3.83;0.80;;;;;;;20.66;65.44;100335.66;5112650;28;20485;-72
2023/07/20 08:55:25;;;;;;;4.30;0.75;;;;;;;20.91;64.08;100334.78;5110435;28;20035;-71
2023/07/20 08:57:53;;;;;;;4.13;0.85;;;;;;;20.73;65.00;100335.38;5120559;28;20545;-72
2023/07/20 09:00:21;;;;;;;4.55;0.70;;;;;;;20.48;67.05;100345.25;5097325;28;20036;-72
2023/07/20 09:02:51;;;;;;;1.58;0.40;;;;;;;20.78;64.89;100340.84;5104668;28;20038;-72
2023/07/20 09:05:17;;;;;;;3.15;0.80;;;;;;;20.68;64.29;100343.59;5109538;28;20028;-72
2023/07/20 09:07:43;;;;;;;4.22;0.80;;;;;;;20.44;65.89;100346.09;5113446;28;20039;-72
2023/07/20 09:10:09;;;;;;;4.03;0.65;;;;;;;20.16;65.98;100349.13;5112122;28;20032;-73
2023/07/20 09:12:39;;;;;;;3.63;0.82;;;;;;;20.75;64.55;100347.66;5098615;28;20055;-72
2023/07/20 09:15:06;;;;;;;3.42;0.60;;;;;;;20.90;63.61;100348.75;5083885;28;20035;-75
2023/07/20 09:17:33;;;;;;;5.80;0.90;;;;;;;20.74;64.23;100342.50;5082160;28;20102;-71
2023/07/20 09:20:07;;;;;;;5.50;0.70;;;;;;;20.86;64.26;100345.72;5080613;28;20483;-71
2023/07/20 09:22:34;;;;;;;6.95;1.00;;;;;;;21.01;63.86;100351.13;5086349;28;20036;-71
2023/07/20 09:24:59;;;;;;;4.10;0.80;;;;;;;20.61;64.83;100344.69;5083345;28;20157;-71
2023/07/20 09:27:47;;;;;;;3.78;0.88;;;;;;;20.16;67.33;100343.66;5071350;28;20028;-71
2023/07/20 09:30:16;;;;;;;3.78;0.73;;;;;;;20.14;67.99;100350.50;5053005;28;20112;-71
2023/07/20 09:32:47;;;;;;;3.90;0.82;;;;;;;20.57;66.22;100349.09;5075030;28;20105;-71
2023/07/20 09:35:17;;;;;;;3.08;0.60;;;;;;;20.60;67.34;100351.28;5063368;28;20025;-72
2023/07/20 09:38:02;;;;;;;2.20;0.50;;;;;;;20.19;67.02;100347.75;5063163;28;20028;-72
2023/07/20 09:40:28;;;;;;;3.42;0.43;;;;;;;20.53;65.10;100350.75;5088907;28;20097;-71
2023/07/20 09:43:02;;;;;;;3.88;0.75;;;;;;;20.79;63.31;100342.47;5090701;28;20138;-71
2023/07/20 09:45:33;;;;;;;3.80;0.50;;;;;;;20.97;64.07;100354.72;5106091;28;20032;-71
2023/07/20 09:48:06;;;;;;;5.68;0.80;;;;;;;20.77;65.02;100350.97;5089392;28;20779;-71
2023/07/20 09:50:33;;;;;;;3.80;0.60;;;;;;;20.35;65.90;100351.28;5090779;28;20043;-71
2023/07/20 09:53:00;;;;;;;4.15;0.98;;;;;;;20.13;66.94;100360.59;5096403;28;20040;-71
2023/07/20 09:55:26;;;;;;;3.30;0.70;;;;;;;19.98;67.86;100346.13;5094891;28;20020;-72
2023/07/20 09:57:53;;;;;;;3.53;0.68;;;;;;;20.09;68.05;100353.22;5092538;28;20046;-71
2023/07/20 10:00:19;;;;;;;3.53;0.75;;;;;;;20.23;67.07;100362.50;5090187;28;20041;-72
2023/07/20 10:02:45;;;;;;;4.63;0.77;;;;;;;20.52;65.95;100368.22;5095662;28;20032;-72
2023/07/20 10:05:13;;;;;;;1.73;0.43;;;;;;;20.50;66.58;100367.66;5090411;28;20031;-71
2023/07/20 10:07:45;;;;;;;5.38;0.63;;;;;;;20.07;68.04;100352.69;5090137;28;20039;-71
2023/07/20 10:10:11;;;;;;;3.63;0.50;;;;;;;20.32;68.30;100362.75;5090209;28;20089;-71
2023/07/20 10:12:39;;;;;;;2.55;0.60;;;;;;;20.07;69.02;100363.59;5091105;28;20036;-71
2023/07/20 10:15:04;;;;;;;6.07;0.90;;;;;;;20.34;68.75;100363.31;5090867;28;20105;-71
2023/07/20 10:17:30;;;;;;;4.20;0.80;;;;;;;20.39;68.67;100368.75;5087186;28;20024;-71
2023/07/20 10:19:59;;;;;;;5.93;1.17;;;;;;;20.27;69.12;100349.94;5071611;28;20550;-71
2023/07/20 10:22:26;;;;;;;4.88;0.80;;;;;;;20.35;68.79;100364.94;5078174;28;20016;-71
2023/07/20 10:24:54;;;;;;;6.15;0.88;;;;;;;20.51;69.10;100361.13;5076955;28;20032;-71
2023/07/20 10:27:20;;;;;;;2.97;0.70;;;;;;;20.47;68.41;100354.56;5088036;28;20039;-71
2023/07/20 10:29:47;;;;;;;4.65;0.60;;;;;;;20.81;66.42;100365.72;5076276;28;20056;-71
2023/07/20 10:32:13;;;;;;;4.72;0.60;;;;;;;20.63;66.39;100367.13;5076410;28;20028;-72
2023/07/20 10:34:39;;;;;;;5.15;0.60;;;;;;;20.33;66.14;100370.69;5109234;28;20106;-71
2023/07/20 10:37:04;;;;;;;3.15;0.47;;;;;;;20.66;66.58;100371.19;5076663;28;20068;-70
2023/07/20 10:39:34;;;;;;;5.47;0.90;;;;;;;20.72;67.56;100361.91;5094606;28;20101;-70
2023/07/20 10:42:07;;;;;;;3.55;0.60;;;;;;;20.59;67.65;100362.47;5093704;28;20043;-71
2023/07/20 10:44:33;;;;;;;4.43;0.57;;;;;;;21.03;66.88;100368.09;5076967;28;20069;-70
2023/07/20 10:47:08;;;;;;;5.38;0.60;;;;;;;20.86;67.22;100365.72;5073973;28;20028;-71
2023/07/20 10:49:35;;;;;;;4.30;0.70;;;;;;;20.67;68.92;100374.78;5085398;28;20069;-71
2023/07/20 10:52:05;;;;;;;2.72;0.60;;;;;;;20.37;69.16;100355.38;5056054;28;20036;-71
2023/07/20 10:54:30;;;;;;;6.22;0.80;;;;;;;20.67;68.73;100377.50;5094176;28;20125;-71
2023/07/20 10:56:57;;;;;;;4.10;0.60;;;;;;;20.78;69.18;100359.97;5095625;28;20031;-72
2023/07/20 10:59:23;;;;;;;4.53;0.65;;;;;;;20.54;70.42;100376.97;5090846;28;20061;-71
2023/07/20 11:01:49;;;;;;;3.95;0.73;;;;;;;20.61;69.97;100365.75;5093269;28;20027;-71
2023/07/20 11:04:18;;;;;;;4.97;0.70;;;;;;;20.45;69.56;100362.19;5093300;28;20027;-71
2023/07/20 11:06:45;;;;;;;2.15;0.50;;;;;;;20.37;70.78;100373.69;5092003;28;20031;-71
2023/07/20 11:09:14;;;;;;;3.38;0.60;;;;;;;20.56;71.03;100379.44;5092037;28;20498;-72
2023/07/20 11:11:49;;;;;;;4.88;0.55;;;;;;;20.36;69.99;100380.22;5090212;28;20478;-72
2023/07/20 11:14:25;;;;;;;;;;;;;;;20.07;69.91;100367.16;5079716;28;20108;-72
2023/07/20 11:16:52;;;;;;;4.80;0.77;;;;;;;20.12;71.32;100363.59;5084980;28;19916;-73
2023/07/20 11:19:18;;;;;;;5.07;0.80;;;;;;;20.31;71.81;100377.53;5089228;28;20388;-72
2023/07/20 11:21:46;;;;;;;5.78;0.80;;;;;;;20.10;72.19;100363.88;5073158;28;20473;-72
2023/07/20 11:24:13;;;;;;;1.90;0.57;;;;;;;20.27;71.10;100376.44;5094367;28;20090;-72